createdAt,value
2022-12-04T00:01:11.993Z,61.20
2022-12-04T00:03:39.146Z,67.45
2022-12-04T00:06:18.528Z,66.68
2022-12-04T00:08:47.534Z,71.35
2022-12-04T00:11:16.995Z,70.18
2022-12-04T00:13:44.349Z,72.50
2022-12-04T00:16:13.908Z,64.63
2022-12-04T00:18:40.959Z,68.45
2022-12-04T00:21:09.621Z,71.22
2022-12-04T00:23:37.593Z,74.80
2022-12-04T00:26:06.725Z,73.00
2022-12-04T00:28:34.245Z,73.30
2022-12-04T00:31:00.839Z,74.07
2022-12-04T00:33:27.421Z,70.15
2022-12-04T00:36:01.857Z,80.03
2022-12-04T00:38:28.884Z,67.30
2022-12-04T00:40:56.057Z,71.72
2022-12-04T00:43:23.617Z,69.18
2022-12-04T00:45:50.635Z,67.95
2022-12-04T00:48:17.363Z,72.50
2022-12-04T00:50:44.325Z,73.27
2022-12-04T00:53:11.307Z,68.15
2022-12-04T00:55:42.129Z,70.40
2022-12-04T00:58:09.845Z,67.00
2022-12-04T01:00:39.217Z,68.00
2022-12-04T01:03:07.853Z,69.83
2022-12-04T01:05:42.209Z,73.22
2022-12-04T01:08:09.735Z,76.25
2022-12-04T01:10:39.039Z,77.05
2022-12-04T01:13:05.950Z,72.88
2022-12-04T01:15:32.575Z,69.93
2022-12-04T01:17:59.713Z,74.13
2022-12-04T01:20:26.297Z,70.55
2022-12-04T01:22:52.851Z,74.97
2022-12-04T01:25:19.742Z,77.68
2022-12-04T01:27:46.433Z,75.83
2022-12-04T01:30:13.184Z,70.65
2022-12-04T01:32:39.798Z,84.88
2022-12-04T01:35:06.867Z,69.03
2022-12-04T01:37:33.629Z,70.65
2022-12-04T01:40:00.184Z,75.73
2022-12-04T01:42:27.346Z,78.10
2022-12-04T01:45:31.155Z,80.65
2022-12-04T01:48:32.149Z,72.95
2022-12-04T01:51:17.799Z,67.93
2022-12-04T01:53:48.969Z,81.20
2022-12-04T01:56:17.725Z,85.53
2022-12-04T01:58:49.477Z,85.47
2022-12-04T02:01:16.131Z,82.28
2022-12-04T02:03:43.373Z,75.68
2022-12-04T02:06:09.971Z,69.63
2022-12-04T02:08:37.751Z,83.78
2022-12-04T02:11:19.275Z,77.13
2022-12-04T02:14:07.704Z,84.07
2022-12-04T02:16:54.381Z,75.47
2022-12-04T02:19:33.071Z,77.70
2022-12-04T02:22:08.360Z,75.70
2022-12-04T02:25:23.153Z,87.13
2022-12-04T02:28:01.152Z,88.28
2022-12-04T02:30:30.602Z,83.05
2022-12-04T02:33:11.571Z,74.80
2022-12-04T02:35:46.481Z,81.32
2022-12-04T02:38:27.018Z,84.35
2022-12-04T02:40:59.372Z,90.82
2022-12-04T02:43:35.709Z,81.50
2022-12-04T02:46:28.970Z,87.37
2022-12-04T02:48:59.264Z,92.38
2022-12-04T02:51:31.951Z,78.80
2022-12-04T02:54:04.565Z,80.63
2022-12-04T02:56:34.607Z,89.45
2022-12-04T02:59:12.746Z,81.77
2022-12-04T03:01:45.446Z,80.22
2022-12-04T03:04:18.292Z,84.97
2022-12-04T03:06:49.478Z,85.90
2022-12-04T03:09:26.564Z,87.75
2022-12-04T03:11:59.885Z,87.57
2022-12-04T03:14:33.730Z,81.10
2022-12-04T03:17:06.650Z,83.28
2022-12-04T03:19:44.039Z,86.28
2022-12-04T03:22:14.956Z,87.78
2022-12-04T03:24:48.053Z,92.37
2022-12-04T03:27:39.429Z,85.70
2022-12-04T03:30:17.058Z,81.57
2022-12-04T03:32:48.782Z,81.18
2022-12-04T03:35:23.808Z,89.03
2022-12-04T03:38:15.158Z,90.50
2022-12-04T03:40:48.670Z,81.75
2022-12-04T03:43:27.326Z,89.95
2022-12-04T03:46:09.800Z,93.38
2022-12-04T03:48:52.122Z,86.68
2022-12-04T03:51:27.657Z,91.20
2022-12-04T03:54:04.057Z,89.88
2022-12-04T03:56:36.778Z,83.97
2022-12-04T03:59:09.236Z,89.53
2022-12-04T04:01:42.819Z,81.28
2022-12-04T04:04:13.662Z,84.43
2022-12-04T04:06:49.162Z,86.75
2022-12-04T04:09:21.245Z,91.53
2022-12-04T04:11:54.109Z,81.13
2022-12-04T04:14:49.568Z,85.75
2022-12-04T04:17:39.065Z,88.80
2022-12-04T04:20:29.289Z,78.97
2022-12-04T04:23:16.334Z,84.03
2022-12-04T04:25:45.239Z,81.43
2022-12-04T04:28:34.837Z,82.32
2022-12-04T04:31:23.135Z,67.93
2022-12-04T04:34:10.020Z,80.43
2022-12-04T04:37:16.065Z,80.15
2022-12-04T04:40:05.755Z,83.05
2022-12-04T04:42:41.638Z,81.15
2022-12-04T04:45:25.842Z,78.50
2022-12-04T04:48:01.748Z,79.03
2022-12-04T04:50:29.316Z,86.85
2022-12-04T04:53:03.444Z,78.70
2022-12-04T04:55:34.388Z,79.25
2022-12-04T04:58:16.302Z,78.50
2022-12-04T05:01:08.298Z,76.22
2022-12-04T05:03:34.952Z,78.72
2022-12-04T05:06:01.738Z,80.78
2022-12-04T05:08:28.552Z,77.43
2022-12-04T05:10:55.697Z,81.30
2022-12-04T05:13:22.828Z,78.60
2022-12-04T05:16:00.545Z,78.30
2022-12-04T05:18:27.791Z,80.95
2022-12-04T05:20:54.694Z,82.88
2022-12-04T05:23:21.383Z,87.27
2022-12-04T05:25:48.019Z,76.50
2022-12-04T05:28:15.157Z,80.60
2022-12-04T05:30:42.301Z,71.40
2022-12-04T05:33:10.485Z,73.65
2022-12-04T05:35:37.851Z,77.13
2022-12-04T05:38:05.532Z,70.65
2022-12-04T05:40:32.144Z,80.78
2022-12-04T05:42:58.726Z,78.30
2022-12-04T05:45:25.346Z,78.38
2022-12-04T05:47:51.895Z,78.13
2022-12-04T05:50:18.480Z,69.60
2022-12-04T05:52:45.193Z,79.70
2022-12-04T05:55:11.746Z,76.88
2022-12-04T05:57:38.389Z,76.38
2022-12-04T06:00:06.142Z,80.67
2022-12-04T06:02:34.214Z,68.25
2022-12-04T06:05:00.897Z,80.38
2022-12-04T06:07:27.555Z,77.90
2022-12-04T06:09:55.498Z,79.07
2022-12-04T06:12:22.372Z,81.77
2022-12-04T06:14:48.910Z,85.75
2022-12-04T06:17:15.483Z,74.28
2022-12-04T06:19:42.241Z,73.68
2022-12-04T06:22:08.939Z,80.32
2022-12-04T06:24:35.549Z,72.90
2022-12-04T06:27:26.839Z,79.80
2022-12-04T06:29:48.792Z,73.55
2022-12-04T06:32:21.187Z,77.63
2022-12-04T06:34:53.144Z,78.47
2022-12-04T06:37:21.633Z,72.73
2022-12-04T06:39:48.550Z,80.07
2022-12-04T06:42:15.337Z,75.55
2022-12-04T06:44:41.886Z,77.30
2022-12-04T06:47:09.487Z,76.10
2022-12-04T06:49:36.273Z,75.60
2022-12-04T06:52:03.463Z,76.60
2022-12-04T06:54:30.055Z,77.60
2022-12-04T06:56:56.622Z,70.82
2022-12-04T06:59:23.766Z,72.63
2022-12-04T07:01:50.459Z,76.93
2022-12-04T07:04:17.073Z,81.80
2022-12-04T07:06:43.624Z,80.38
2022-12-04T07:09:15.412Z,73.45
2022-12-04T07:11:43.260Z,67.88
2022-12-04T07:14:10.981Z,74.53
2022-12-04T07:16:41.490Z,73.15
2022-12-04T07:19:13.511Z,75.38
2022-12-04T07:21:40.786Z,80.35
2022-12-04T07:24:07.546Z,71.07
2022-12-04T07:26:34.563Z,81.67
2022-12-04T07:29:01.454Z,66.38
2022-12-04T07:31:29.463Z,79.85
2022-12-04T07:33:57.301Z,73.85
2022-12-04T07:36:25.423Z,71.88
2022-12-04T07:38:52.575Z,75.90
2022-12-04T07:41:19.476Z,77.63
2022-12-04T07:43:46.554Z,86.75
2022-12-04T07:46:17.420Z,77.10
2022-12-04T07:48:44.319Z,80.43
2022-12-04T07:51:13.796Z,68.07
2022-12-04T07:53:41.179Z,70.47
2022-12-04T07:56:10.001Z,75.15
2022-12-04T07:58:36.732Z,75.85
2022-12-04T08:01:12.279Z,72.68
2022-12-04T08:03:46.810Z,71.63
2022-12-04T08:06:15.136Z,76.68
2022-12-04T08:08:41.741Z,73.75
2022-12-04T08:11:10.469Z,76.78
2022-12-04T08:13:37.180Z,78.35
2022-12-04T08:16:05.103Z,76.60
2022-12-04T08:18:32.171Z,79.75
2022-12-04T08:21:10.479Z,67.97
2022-12-04T08:23:37.771Z,71.43
2022-12-04T08:26:05.275Z,71.70
2022-12-04T08:28:32.013Z,72.37
2022-12-04T08:31:11.753Z,78.18
2022-12-04T08:33:39.115Z,73.78
2022-12-04T08:36:06.694Z,71.68
2022-12-04T08:38:33.277Z,80.40
2022-12-04T08:41:04.651Z,75.30
2022-12-04T08:43:32.239Z,80.80
2022-12-04T08:46:02.272Z,80.18
2022-12-04T08:48:29.577Z,79.00
2022-12-04T08:50:56.384Z,74.90
2022-12-04T08:53:23.768Z,75.30
2022-12-04T08:55:51.288Z,77.78
2022-12-04T08:58:19.195Z,77.18
2022-12-04T09:00:46.189Z,73.28
2022-12-04T09:03:15.012Z,73.35
2022-12-04T09:05:42.272Z,75.97
2022-12-04T09:08:08.960Z,79.45
2022-12-04T09:10:36.903Z,70.25
2022-12-04T09:13:03.446Z,80.50
2022-12-04T09:15:30.201Z,82.30
2022-12-04T09:17:56.865Z,74.43
2022-12-04T09:20:23.587Z,74.60
2022-12-04T09:23:03.310Z,78.85
2022-12-04T09:25:31.176Z,76.43
2022-12-04T09:27:57.767Z,72.60
2022-12-04T09:30:24.297Z,74.10
2022-12-04T09:32:50.902Z,76.97
2022-12-04T09:35:17.590Z,79.55
2022-12-04T09:37:44.181Z,75.50
2022-12-04T09:40:25.236Z,73.22
2022-12-04T09:43:24.659Z,71.87
2022-12-04T09:45:55.700Z,72.13
2022-12-04T09:48:31.578Z,79.70
2022-12-04T09:50:59.893Z,79.28
2022-12-04T09:53:30.034Z,76.97
2022-12-04T09:56:03.833Z,84.97
2022-12-04T09:58:43.678Z,73.03
2022-12-04T10:01:37.330Z,77.10
2022-12-04T10:04:06.424Z,73.63
2022-12-04T10:06:47.033Z,71.93
2022-12-04T10:09:19.682Z,75.80
2022-12-04T10:11:59.421Z,69.20
2022-12-04T10:14:36.325Z,74.18
2022-12-04T10:17:43.141Z,72.60
2022-12-04T10:20:18.590Z,74.57
2022-12-04T10:23:25.301Z,70.10
2022-12-04T10:25:54.808Z,68.43
2022-12-04T10:28:38.982Z,69.80
2022-12-04T10:31:13.182Z,69.95
2022-12-04T10:34:07.365Z,70.78
2022-12-04T10:36:35.569Z,76.30
2022-12-04T10:39:21.723Z,67.85
2022-12-04T10:42:00.059Z,67.43
2022-12-04T10:44:27.086Z,67.60
2022-12-04T10:46:58.533Z,67.70
2022-12-04T10:49:36.381Z,72.50
2022-12-04T10:52:04.671Z,68.22
2022-12-04T10:54:31.399Z,64.35
2022-12-04T10:57:03.620Z,70.28
2022-12-04T10:59:30.935Z,62.83
2022-12-04T11:02:20.209Z,66.53
2022-12-04T11:04:55.969Z,70.55
2022-12-04T11:07:32.223Z,68.10
2022-12-04T11:10:04.080Z,67.72
2022-12-04T11:12:32.120Z,65.32
2022-12-04T11:15:08.535Z,67.63
2022-12-04T11:17:35.129Z,65.10
2022-12-04T11:20:23.767Z,66.85
2022-12-04T11:22:57.047Z,66.03
2022-12-04T11:25:27.224Z,67.90
2022-12-04T11:28:01.141Z,67.70
2022-12-04T11:30:36.933Z,65.70
2022-12-04T11:33:06.414Z,67.43
2022-12-04T11:35:33.049Z,73.57
2022-12-04T11:38:08.522Z,65.57
2022-12-04T11:40:36.400Z,63.93
2022-12-04T11:43:13.883Z,64.35
2022-12-04T11:45:41.260Z,72.05
2022-12-04T11:48:16.925Z,65.13
2022-12-04T11:50:48.733Z,63.20
2022-12-04T11:53:17.419Z,67.67
2022-12-04T11:56:04.763Z,61.90
2022-12-04T11:58:37.178Z,69.00
2022-12-04T12:01:28.681Z,65.85
2022-12-04T12:04:20.082Z,67.18
2022-12-04T12:06:58.552Z,63.27
2022-12-04T12:09:53.275Z,63.22
2022-12-04T12:12:34.877Z,63.22
2022-12-04T12:15:36.442Z,66.00
2022-12-04T12:18:22.496Z,60.15
2022-12-04T12:21:13.719Z,62.90
2022-12-04T12:23:55.927Z,67.15
2022-12-04T12:26:29.795Z,61.83
2022-12-04T12:29:10.161Z,66.07
2022-12-04T12:32:18.844Z,61.85
2022-12-04T12:34:46.441Z,65.90
2022-12-04T12:37:19.269Z,67.05
2022-12-04T12:39:55.886Z,61.75
2022-12-04T12:42:28.598Z,67.13
2022-12-04T12:45:13.829Z,72.68
2022-12-04T12:47:45.441Z,69.10
2022-12-04T12:50:31.374Z,69.88
2022-12-04T12:53:36.573Z,69.75
2022-12-04T12:56:05.435Z,70.30
2022-12-04T12:58:42.788Z,74.15
2022-12-04T13:01:20.364Z,68.50
2022-12-04T13:04:07.353Z,75.18
2022-12-04T13:06:39.207Z,68.18
2022-12-04T13:09:29.897Z,66.90
2022-12-04T13:12:01.592Z,65.07
2022-12-04T13:14:28.197Z,66.87
2022-12-04T13:17:00.626Z,64.45
2022-12-04T13:19:44.545Z,68.57
2022-12-04T13:22:26.863Z,66.32
2022-12-04T13:25:22.452Z,70.47
2022-12-04T13:28:07.884Z,65.53
2022-12-04T13:30:59.982Z,67.22
2022-12-04T13:33:45.047Z,68.63
2022-12-04T13:36:34.655Z,66.63
2022-12-04T13:39:20.006Z,72.00
2022-12-04T13:41:46.937Z,66.07
2022-12-04T13:44:22.170Z,74.15
2022-12-04T13:46:57.421Z,75.13
2022-12-04T13:49:26.077Z,75.03
2022-12-04T13:51:54.020Z,66.55
2022-12-04T13:54:31.496Z,65.57
2022-12-04T13:57:17.347Z,63.35
2022-12-04T13:59:44.407Z,64.72
2022-12-04T14:02:22.593Z,71.50
2022-12-04T14:05:07.495Z,70.07
2022-12-04T14:08:04.273Z,69.07
2022-12-04T14:10:38.978Z,61.80
2022-12-04T14:13:19.632Z,67.03
2022-12-04T14:15:46.401Z,66.63
2022-12-04T14:18:13.244Z,64.57
2022-12-04T14:20:42.537Z,67.00
2022-12-04T14:23:27.449Z,70.30
2022-12-04T14:25:57.640Z,73.28
2022-12-04T14:28:26.285Z,72.20
2022-12-04T14:31:19.065Z,68.95
2022-12-04T14:33:53.570Z,74.40
2022-12-04T14:36:31.387Z,73.05
2022-12-04T14:39:07.645Z,70.43
2022-12-04T14:41:34.433Z,74.15
2022-12-04T14:44:01.187Z,74.20
2022-12-04T14:46:39.771Z,81.13
2022-12-04T14:49:24.659Z,78.45
2022-12-04T14:52:03.419Z,73.20
2022-12-04T14:54:43.934Z,81.90
2022-12-04T14:57:35.117Z,76.75
2022-12-04T15:00:04.870Z,70.73
2022-12-04T15:02:42.756Z,76.72
2022-12-04T15:05:11.538Z,75.43
2022-12-04T15:07:47.713Z,84.90
2022-12-04T15:10:42.685Z,63.90
2022-12-04T15:13:09.761Z,82.40
2022-12-04T15:15:36.711Z,67.93
2022-12-04T15:18:09.143Z,71.82
2022-12-04T15:20:47.909Z,80.40
2022-12-04T15:23:19.901Z,85.00
2022-12-04T15:25:54.457Z,76.43
2022-12-04T15:28:28.778Z,82.95
2022-12-04T15:30:57.228Z,79.15
2022-12-04T15:33:34.479Z,86.43
2022-12-04T15:36:42.796Z,77.25
2022-12-04T15:39:16.563Z,82.07
2022-12-04T15:41:43.187Z,74.90
2022-12-04T15:44:29.851Z,73.68
2022-12-04T15:47:00.285Z,81.80
2022-12-04T15:49:32.350Z,77.03
2022-12-04T15:52:16.249Z,80.60
2022-12-04T15:55:06.112Z,76.43
2022-12-04T15:57:37.177Z,73.07
2022-12-04T16:00:07.551Z,74.25
2022-12-04T16:02:42.789Z,84.15
2022-12-04T16:05:21.538Z,77.47
2022-12-04T16:08:03.550Z,79.80
2022-12-04T16:10:33.181Z,84.32
2022-12-04T16:13:03.308Z,78.28
2022-12-04T16:15:42.711Z,84.78
2022-12-04T16:18:12.459Z,79.10
2022-12-04T16:20:40.102Z,99.03
2022-12-04T16:23:07.183Z,98.75
2022-12-04T16:25:33.762Z,90.03
2022-12-04T16:28:01.424Z,82.65
2022-12-04T16:30:31.667Z,77.60
2022-12-04T16:32:58.252Z,90.50
2022-12-04T16:35:25.045Z,82.43
2022-12-04T16:37:51.720Z,84.68
2022-12-04T16:40:19.216Z,73.53
2022-12-04T16:42:45.969Z,83.87
2022-12-04T16:45:21.467Z,91.22
2022-12-04T16:47:48.376Z,80.03
2022-12-04T16:50:15.237Z,87.85
2022-12-04T16:52:42.054Z,90.80
2022-12-04T16:55:24.252Z,91.63
2022-12-04T16:57:50.895Z,86.07
2022-12-04T17:00:18.554Z,91.70
2022-12-04T17:02:45.326Z,87.28
2022-12-04T17:05:37.761Z,84.07
2022-12-04T17:08:36.871Z,84.83
2022-12-04T17:11:34.771Z,85.03
2022-12-04T17:14:08.092Z,85.00
2022-12-04T17:16:43.682Z,84.55
2022-12-04T17:19:11.732Z,94.15
2022-12-04T17:21:40.251Z,86.90
2022-12-04T17:24:07.342Z,89.78
2022-12-04T17:26:34.338Z,98.20
2022-12-04T17:29:00.941Z,88.68
2022-12-04T17:31:28.062Z,98.78
2022-12-04T17:33:56.129Z,90.70
2022-12-04T17:36:25.029Z,83.30
2022-12-04T17:38:59.364Z,103.07
2022-12-04T17:41:26.085Z,105.60
2022-12-04T17:43:52.717Z,102.15
2022-12-04T17:46:21.715Z,89.93
2022-12-04T17:48:49.261Z,98.88
2022-12-04T17:51:21.770Z,89.30
2022-12-04T17:53:48.616Z,95.45
2022-12-04T17:56:18.147Z,94.72
2022-12-04T17:58:45.406Z,89.33
2022-12-04T18:01:20.037Z,92.28
2022-12-04T18:03:55.298Z,89.70
2022-12-04T18:06:25.724Z,96.32
2022-12-04T18:08:52.788Z,89.15
2022-12-04T18:11:21.675Z,96.70
2022-12-04T18:13:49.808Z,94.07
2022-12-04T18:16:16.426Z,98.75
2022-12-04T18:18:46.579Z,80.47
2022-12-04T18:21:14.314Z,91.32
2022-12-04T18:23:45.524Z,91.27
2022-12-04T18:26:18.935Z,97.07
2022-12-04T18:28:46.550Z,99.15
2022-12-04T18:31:14.394Z,87.90
2022-12-04T18:33:42.513Z,97.95
2022-12-04T18:36:18.674Z,82.33
2022-12-04T18:38:46.021Z,88.95
2022-12-04T18:41:14.559Z,90.93
2022-12-04T18:43:43.453Z,92.22
2022-12-04T18:46:12.730Z,89.45
2022-12-04T18:48:40.877Z,85.07
2022-12-04T18:51:39.282Z,85.35
2022-12-04T18:54:14.759Z,83.82
2022-12-04T18:56:42.340Z,84.95
2022-12-04T18:59:22.409Z,91.25
2022-12-04T19:01:53.105Z,90.63
2022-12-04T19:04:22.196Z,84.85
2022-12-04T19:06:52.367Z,97.47
2022-12-04T19:09:47.086Z,84.18
2022-12-04T19:12:12.621Z,89.93
2022-12-04T19:14:39.779Z,90.70
2022-12-04T19:17:06.495Z,80.45
2022-12-04T19:19:33.133Z,83.88
2022-12-04T19:22:01.098Z,101.85
2022-12-04T19:24:27.761Z,98.45
2022-12-04T19:26:54.715Z,94.23
2022-12-04T19:29:21.369Z,96.53
2022-12-04T19:31:48.047Z,87.25
2022-12-04T19:34:14.632Z,104.13
2022-12-04T19:36:42.547Z,86.97
2022-12-04T19:39:09.775Z,77.23
2022-12-04T19:41:38.525Z,83.80
2022-12-04T19:44:20.098Z,75.72
2022-12-04T19:46:51.851Z,84.80
2022-12-04T19:49:18.857Z,85.95
2022-12-04T19:51:46.661Z,78.07
2022-12-04T19:54:14.118Z,76.68
2022-12-04T19:56:41.658Z,77.82
2022-12-04T19:59:08.640Z,73.30
2022-12-04T20:01:35.895Z,73.88
2022-12-04T20:04:06.827Z,79.27
2022-12-04T20:06:43.195Z,71.97
2022-12-04T20:09:12.814Z,76.30
2022-12-04T20:11:40.345Z,88.45
2022-12-04T20:14:07.882Z,72.70
2022-12-04T20:16:35.359Z,67.60
2022-12-04T20:19:03.780Z,78.40
2022-12-04T20:21:32.398Z,82.78
2022-12-04T20:24:03.942Z,90.40
2022-12-04T20:26:33.751Z,89.75
2022-12-04T20:29:01.397Z,76.10
2022-12-04T20:31:29.610Z,69.28
2022-12-04T20:33:58.347Z,73.85
2022-12-04T20:36:27.072Z,78.00
2022-12-04T20:38:55.415Z,74.93
2022-12-04T20:41:22.411Z,65.20
2022-12-04T20:43:49.231Z,73.20
2022-12-04T20:46:28.095Z,79.88
2022-12-04T20:48:55.008Z,75.68
2022-12-04T20:51:25.227Z,73.47
2022-12-04T20:53:53.328Z,79.30
2022-12-04T20:56:21.752Z,72.28
2022-12-04T20:58:48.664Z,67.78
2022-12-04T21:01:18.228Z,79.82
2022-12-04T21:03:46.174Z,75.40
2022-12-04T21:06:31.048Z,72.40
2022-12-04T21:09:02.148Z,75.38
2022-12-04T21:11:37.872Z,68.15
2022-12-04T21:14:24.901Z,67.15
2022-12-04T21:16:51.649Z,62.22
2022-12-04T21:19:20.485Z,76.20
2022-12-04T21:21:47.308Z,67.60
2022-12-04T21:24:16.205Z,83.88
2022-12-04T21:26:43.082Z,71.43
2022-12-04T21:29:10.058Z,74.95
2022-12-04T21:31:37.283Z,78.73
2022-12-04T21:34:07.392Z,82.03
2022-12-04T21:36:34.138Z,69.63
2022-12-04T21:39:01.094Z,70.80
2022-12-04T21:41:46.066Z,73.05
2022-12-04T21:44:18.219Z,73.07
2022-12-04T21:46:46.191Z,65.72
2022-12-04T21:49:13.862Z,68.47
2022-12-04T21:51:56.892Z,80.32
2022-12-04T21:54:25.318Z,70.18
2022-12-04T21:56:51.963Z,82.03
2022-12-04T21:59:18.741Z,76.28
2022-12-04T22:01:45.596Z,68.10
2022-12-04T22:04:12.540Z,65.18
2022-12-04T22:06:39.185Z,72.30
2022-12-04T22:09:11.366Z,69.77
2022-12-04T22:11:41.329Z,73.40
2022-12-04T22:14:08.373Z,70.80
2022-12-04T22:16:41.331Z,74.90
2022-12-04T22:19:09.844Z,73.15
2022-12-04T22:21:36.522Z,72.37
2022-12-04T22:24:04.065Z,70.72
2022-12-04T22:26:31.335Z,74.10
2022-12-04T22:28:57.926Z,85.53
2022-12-04T22:31:26.572Z,72.15
2022-12-04T22:33:55.379Z,70.17
2022-12-04T22:36:25.249Z,66.38
2022-12-04T22:39:08.763Z,69.03
2022-12-04T22:41:36.439Z,78.95
2022-12-04T22:44:03.526Z,84.68
2022-12-04T22:46:30.482Z,81.03
2022-12-04T22:48:59.200Z,80.22
2022-12-04T22:51:27.020Z,73.88
2022-12-04T22:53:56.042Z,74.03
2022-12-04T22:56:31.241Z,79.95
2022-12-04T22:58:58.984Z,72.90
2022-12-04T23:01:28.461Z,70.50
2022-12-04T23:03:55.350Z,75.43
2022-12-04T23:06:24.423Z,65.75
2022-12-04T23:08:59.898Z,64.32
2022-12-04T23:11:27.895Z,76.73
2022-12-04T23:14:03.093Z,71.88
2022-12-04T23:16:31.733Z,70.68
2022-12-04T23:18:58.887Z,79.03
2022-12-04T23:21:26.309Z,78.35
2022-12-04T23:23:53.968Z,71.83
2022-12-04T23:26:23.956Z,70.57
2022-12-04T23:28:51.051Z,72.35
2022-12-04T23:31:18.246Z,76.70
2022-12-04T23:33:44.965Z,77.68
2022-12-04T23:36:12.570Z,75.47
2022-12-04T23:38:40.553Z,70.78
2022-12-04T23:41:13.150Z,74.95
2022-12-04T23:43:40.641Z,73.15
2022-12-04T23:46:11.364Z,75.90
2022-12-04T23:48:39.789Z,75.60
2022-12-04T23:51:07.499Z,80.57
2022-12-04T23:53:34.287Z,78.65
2022-12-04T23:56:06.371Z,85.38
2022-12-04T23:58:34.161Z,81.45
